sensor_id;sensor_type;location;lat;lon;timestamp;P1;durP1;ratioP1;P2;durP2;ratioP2
22652;SDS011;11493;43.344;26.226;2023-08-08T00:00:31;1.45;;;1.00;;
22652;SDS011;11493;43.344;26.226;2023-08-08T00:02:58;1.45;;;0.90;;
22652;SDS011;11493;43.344;26.226;2023-08-08T00:05:25;1.25;;;0.80;;
22652;SDS011;11493;43.344;26.226;2023-08-08T00:07:54;0.70;;;0.70;;
22652;SDS011;11493;43.344;26.226;2023-08-08T00:10:21;0.95;;;0.80;;
22652;SDS011;11493;43.344;26.226;2023-08-08T00:12:49;3.13;;;0.93;;
22652;SDS011;11493;43.344;26.226;2023-08-08T00:15:17;2.95;;;0.80;;
22652;SDS011;11493;43.344;26.226;2023-08-08T00:17:45;2.78;;;1.13;;
22652;SDS011;11493;43.344;26.226;2023-08-08T00:20:15;2.97;;;0.90;;
22652;SDS011;11493;43.344;26.226;2023-08-08T00:22:42;1.52;;;0.90;;
22652;SDS011;11493;43.344;26.226;2023-08-08T00:25:10;2.83;;;0.80;;
22652;SDS011;11493;43.344;26.226;2023-08-08T00:27:38;1.23;;;0.90;;
22652;SDS011;11493;43.344;26.226;2023-08-08T00:30:10;1.42;;;0.80;;
22652;SDS011;11493;43.344;26.226;2023-08-08T00:32:39;0.88;;;0.70;;
22652;SDS011;11493;43.344;26.226;2023-08-08T00:35:06;2.63;;;0.90;;
22652;SDS011;11493;43.344;26.226;2023-08-08T00:37:34;1.10;;;0.73;;
22652;SDS011;11493;43.344;26.226;2023-08-08T00:40:01;0.90;;;0.60;;
22652;SDS011;11493;43.344;26.226;2023-08-08T00:42:28;0.75;;;0.70;;
22652;SDS011;11493;43.344;26.226;2023-08-08T00:44:57;1.60;;;0.90;;
22652;SDS011;11493;43.344;26.226;2023-08-08T00:47:31;1.90;;;0.90;;
22652;SDS011;11493;43.344;26.226;2023-08-08T00:50:01;1.48;;;1.10;;
22652;SDS011;11493;43.344;26.226;2023-08-08T00:52:29;0.77;;;0.70;;
22652;SDS011;11493;43.344;26.226;2023-08-08T00:54:57;1.88;;;0.77;;
22652;SDS011;11493;43.344;26.226;2023-08-08T00:57:25;1.40;;;0.93;;
22652;SDS011;11493;43.344;26.226;2023-08-08T00:59:53;1.52;;;0.90;;
22652;SDS011;11493;43.344;26.226;2023-08-08T01:02:20;1.33;;;1.02;;
22652;SDS011;11493;43.344;26.226;2023-08-08T01:04:48;1.30;;;0.73;;
22652;SDS011;11493;43.344;26.226;2023-08-08T01:10:04;1.20;;;0.70;;
22652;SDS011;11493;43.344;26.226;2023-08-08T01:12:39;1.00;;;0.90;;
22652;SDS011;11493;43.344;26.226;2023-08-08T01:15:09;0.93;;;0.80;;
22652;SDS011;11493;43.344;26.226;2023-08-08T01:17:37;1.23;;;1.00;;
22652;SDS011;11493;43.344;26.226;2023-08-08T01:20:04;1.08;;;0.90;;
22652;SDS011;11493;43.344;26.226;2023-08-08T01:22:37;2.55;;;0.88;;
22652;SDS011;11493;43.344;26.226;2023-08-08T01:25:09;1.40;;;0.90;;
22652;SDS011;11493;43.344;26.226;2023-08-08T01:27:37;1.10;;;1.00;;
22652;SDS011;11493;43.344;26.226;2023-08-08T01:30:06;1.92;;;0.82;;
22652;SDS011;11493;43.344;26.226;2023-08-08T01:32:34;1.63;;;0.95;;
22652;SDS011;11493;43.344;26.226;2023-08-08T01:35:01;1.65;;;0.90;;
22652;SDS011;11493;43.344;26.226;2023-08-08T01:37:30;2.22;;;1.30;;
22652;SDS011;11493;43.344;26.226;2023-08-08T01:40:02;1.23;;;0.80;;
22652;SDS011;11493;43.344;26.226;2023-08-08T01:42:32;1.10;;;0.90;;
22652;SDS011;11493;43.344;26.226;2023-08-08T01:45:00;1.00;;;0.90;;
22652;SDS011;11493;43.344;26.226;2023-08-08T01:47:29;8.00;;;1.65;;
22652;SDS011;11493;43.344;26.226;2023-08-08T01:49:57;2.13;;;1.27;;
22652;SDS011;11493;43.344;26.226;2023-08-08T01:52:25;3.72;;;1.55;;
22652;SDS011;11493;43.344;26.226;2023-08-08T01:54:52;4.35;;;1.58;;
22652;SDS011;11493;43.344;26.226;2023-08-08T01:57:20;2.05;;;1.25;;
22652;SDS011;11493;43.344;26.226;2023-08-08T01:59:52;3.58;;;1.83;;
22652;SDS011;11493;43.344;26.226;2023-08-08T02:02:21;11.07;;;1.85;;
22652;SDS011;11493;43.344;26.226;2023-08-08T02:04:49;2.05;;;1.35;;
22652;SDS011;11493;43.344;26.226;2023-08-08T02:07:18;3.80;;;1.20;;
22652;SDS011;11493;43.344;26.226;2023-08-08T02:09:46;3.75;;;1.48;;
22652;SDS011;11493;43.344;26.226;2023-08-08T02:12:13;3.53;;;1.30;;
22652;SDS011;11493;43.344;26.226;2023-08-08T02:14:41;2.00;;;1.60;;
22652;SDS011;11493;43.344;26.226;2023-08-08T02:17:08;3.42;;;1.45;;
22652;SDS011;11493;43.344;26.226;2023-08-08T02:19:35;2.97;;;1.75;;
22652;SDS011;11493;43.344;26.226;2023-08-08T02:22:03;4.13;;;1.30;;
22652;SDS011;11493;43.344;26.226;2023-08-08T02:24:30;3.25;;;1.58;;
22652;SDS011;11493;43.344;26.226;2023-08-08T02:26:57;3.90;;;1.63;;
22652;SDS011;11493;43.344;26.226;2023-08-08T02:29:25;4.47;;;1.55;;
22652;SDS011;11493;43.344;26.226;2023-08-08T02:31:52;4.88;;;1.25;;
22652;SDS011;11493;43.344;26.226;2023-08-08T02:34:20;1.52;;;1.30;;
22652;SDS011;11493;43.344;26.226;2023-08-08T02:36:47;1.58;;;1.30;;
22652;SDS011;11493;43.344;26.226;2023-08-08T02:39:15;1.52;;;1.10;;
22652;SDS011;11493;43.344;26.226;2023-08-08T02:41:43;3.28;;;1.25;;
22652;SDS011;11493;43.344;26.226;2023-08-08T02:44:11;1.25;;;1.00;;
22652;SDS011;11493;43.344;26.226;2023-08-08T02:46:39;1.20;;;1.10;;
22652;SDS011;11493;43.344;26.226;2023-08-08T02:49:06;1.42;;;0.88;;
22652;SDS011;11493;43.344;26.226;2023-08-08T02:51:34;2.13;;;1.00;;
22652;SDS011;11493;43.344;26.226;2023-08-08T02:54:01;1.30;;;1.00;;
22652;SDS011;11493;43.344;26.226;2023-08-08T02:56:30;1.48;;;1.10;;
22652;SDS011;11493;43.344;26.226;2023-08-08T02:58:57;1.70;;;1.02;;
22652;SDS011;11493;43.344;26.226;2023-08-08T03:01:25;1.30;;;1.20;;
22652;SDS011;11493;43.344;26.226;2023-08-08T03:03:53;8.98;;;1.20;;
22652;SDS011;11493;43.344;26.226;2023-08-08T03:06:23;1.77;;;0.90;;
22652;SDS011;11493;43.344;26.226;2023-08-08T03:08:51;1.90;;;1.20;;
22652;SDS011;11493;43.344;26.226;2023-08-08T03:11:19;2.80;;;1.50;;
22652;SDS011;11493;43.344;26.226;2023-08-08T03:13:47;4.15;;;1.10;;
22652;SDS011;11493;43.344;26.226;2023-08-08T03:16:15;1.92;;;1.15;;
22652;SDS011;11493;43.344;26.226;2023-08-08T03:18:42;2.60;;;1.00;;
22652;SDS011;11493;43.344;26.226;2023-08-08T03:21:10;3.00;;;1.10;;
22652;SDS011;11493;43.344;26.226;2023-08-08T03:23:37;1.95;;;1.30;;
22652;SDS011;11493;43.344;26.226;2023-08-08T03:26:04;2.42;;;1.20;;
22652;SDS011;11493;43.344;26.226;2023-08-08T03:28:32;3.42;;;1.20;;
22652;SDS011;11493;43.344;26.226;2023-08-08T03:30:59;1.67;;;1.10;;
22652;SDS011;11493;43.344;26.226;2023-08-08T03:33:27;2.30;;;0.95;;
22652;SDS011;11493;43.344;26.226;2023-08-08T03:35:54;5.85;;;2.85;;
22652;SDS011;11493;43.344;26.226;2023-08-08T03:38:24;1.58;;;1.10;;
22652;SDS011;11493;43.344;26.226;2023-08-08T03:40:52;1.70;;;1.10;;
22652;SDS011;11493;43.344;26.226;2023-08-08T03:43:21;1.42;;;1.33;;
22652;SDS011;11493;43.344;26.226;2023-08-08T03:45:49;1.60;;;1.50;;
22652;SDS011;11493;43.344;26.226;2023-08-08T03:48:17;1.60;;;1.50;;
22652;SDS011;11493;43.344;26.226;2023-08-08T03:50:44;6.15;;;1.40;;
22652;SDS011;11493;43.344;26.226;2023-08-08T03:53:13;2.28;;;1.80;;
22652;SDS011;11493;43.344;26.226;2023-08-08T03:55:40;3.40;;;1.83;;
22652;SDS011;11493;43.344;26.226;2023-08-08T03:58:07;2.97;;;1.80;;
22652;SDS011;11493;43.344;26.226;2023-08-08T04:00:38;2.30;;;1.97;;
22652;SDS011;11493;43.344;26.226;2023-08-08T04:03:13;8.70;;;2.10;;
22652;SDS011;11493;43.344;26.226;2023-08-08T04:05:44;4.18;;;1.63;;
22652;SDS011;11493;43.344;26.226;2023-08-08T04:08:17;4.75;;;1.95;;
22652;SDS011;11493;43.344;26.226;2023-08-08T04:10:46;2.10;;;1.90;;
22652;SDS011;11493;43.344;26.226;2023-08-08T04:13:14;3.05;;;1.83;;
22652;SDS011;11493;43.344;26.226;2023-08-08T04:15:43;2.78;;;1.70;;
22652;SDS011;11493;43.344;26.226;2023-08-08T04:18:14;3.10;;;1.70;;
22652;SDS011;11493;43.344;26.226;2023-08-08T04:20:42;5.80;;;2.22;;
22652;SDS011;11493;43.344;26.226;2023-08-08T04:23:12;6.65;;;2.30;;
22652;SDS011;11493;43.344;26.226;2023-08-08T04:25:40;4.32;;;2.20;;
22652;SDS011;11493;43.344;26.226;2023-08-08T04:28:11;2.72;;;2.47;;
22652;SDS011;11493;43.344;26.226;2023-08-08T04:30:42;5.95;;;2.17;;
22652;SDS011;11493;43.344;26.226;2023-08-08T04:33:09;4.10;;;2.40;;
22652;SDS011;11493;43.344;26.226;2023-08-08T04:35:39;3.25;;;1.90;;
22652;SDS011;11493;43.344;26.226;2023-08-08T04:38:08;4.72;;;2.17;;
22652;SDS011;11493;43.344;26.226;2023-08-08T04:40:35;2.85;;;2.40;;
22652;SDS011;11493;43.344;26.226;2023-08-08T04:43:04;4.28;;;2.55;;
22652;SDS011;11493;43.344;26.226;2023-08-08T04:45:31;1.80;;;1.52;;
22652;SDS011;11493;43.344;26.226;2023-08-08T04:48:00;2.05;;;1.85;;
22652;SDS011;11493;43.344;26.226;2023-08-08T04:50:31;2.25;;;1.88;;
22652;SDS011;11493;43.344;26.226;2023-08-08T04:52:58;3.83;;;2.30;;
22652;SDS011;11493;43.344;26.226;2023-08-08T04:55:25;3.22;;;2.72;;
22652;SDS011;11493;43.344;26.226;2023-08-08T04:57:54;2.83;;;2.58;;
22652;SDS011;11493;43.344;26.226;2023-08-08T05:00:21;6.63;;;2.40;;
22652;SDS011;11493;43.344;26.226;2023-08-08T05:02:48;3.42;;;2.08;;
22652;SDS011;11493;43.344;26.226;2023-08-08T05:05:17;1.75;;;1.65;;
22652;SDS011;11493;43.344;26.226;2023-08-08T05:07:44;8.18;;;2.38;;
22652;SDS011;11493;43.344;26.226;2023-08-08T05:10:11;2.10;;;1.90;;
22652;SDS011;11493;43.344;26.226;2023-08-08T05:12:38;4.28;;;2.35;;
22652;SDS011;11493;43.344;26.226;2023-08-08T05:15:06;4.22;;;2.50;;
22652;SDS011;11493;43.344;26.226;2023-08-08T05:17:34;2.72;;;2.03;;
22652;SDS011;11493;43.344;26.226;2023-08-08T05:20:01;4.50;;;1.80;;
22652;SDS011;11493;43.344;26.226;2023-08-08T05:22:29;3.47;;;1.80;;
22652;SDS011;11493;43.344;26.226;2023-08-08T05:24:56;2.03;;;1.80;;
22652;SDS011;11493;43.344;26.226;2023-08-08T05:27:24;2.67;;;1.75;;
22652;SDS011;11493;43.344;26.226;2023-08-08T05:29:51;3.05;;;1.83;;
22652;SDS011;11493;43.344;26.226;2023-08-08T05:32:18;3.38;;;1.98;;
22652;SDS011;11493;43.344;26.226;2023-08-08T05:34:45;2.28;;;1.92;;
22652;SDS011;11493;43.344;26.226;2023-08-08T05:37:13;4.45;;;2.28;;
22652;SDS011;11493;43.344;26.226;2023-08-08T05:39:43;2.20;;;2.00;;
22652;SDS011;11493;43.344;26.226;2023-08-08T05:42:11;3.03;;;1.88;;
22652;SDS011;11493;43.344;26.226;2023-08-08T05:44:39;2.40;;;1.70;;
22652;SDS011;11493;43.344;26.226;2023-08-08T05:47:08;2.15;;;1.80;;
22652;SDS011;11493;43.344;26.226;2023-08-08T05:49:37;2.35;;;1.70;;
22652;SDS011;11493;43.344;26.226;2023-08-08T05:52:09;2.00;;;1.80;;
22652;SDS011;11493;43.344;26.226;2023-08-08T05:54:37;3.45;;;1.60;;
22652;SDS011;11493;43.344;26.226;2023-08-08T05:57:05;2.17;;;1.98;;
22652;SDS011;11493;43.344;26.226;2023-08-08T05:59:33;2.70;;;1.60;;
22652;SDS011;11493;43.344;26.226;2023-08-08T06:02:00;2.90;;;1.92;;
22652;SDS011;11493;43.344;26.226;2023-08-08T06:04:28;7.03;;;2.10;;
22652;SDS011;11493;43.344;26.226;2023-08-08T06:06:55;2.20;;;2.00;;
22652;SDS011;11493;43.344;26.226;2023-08-08T06:09:22;8.02;;;1.70;;
22652;SDS011;11493;43.344;26.226;2023-08-08T06:11:50;1.60;;;1.50;;
22652;SDS011;11493;43.344;26.226;2023-08-08T06:14:16;7.55;;;1.90;;
22652;SDS011;11493;43.344;26.226;2023-08-08T06:16:44;2.70;;;1.77;;
22652;SDS011;11493;43.344;26.226;2023-08-08T06:19:13;1.42;;;1.33;;
22652;SDS011;11493;43.344;26.226;2023-08-08T06:21:41;4.85;;;2.05;;
22652;SDS011;11493;43.344;26.226;2023-08-08T06:24:08;2.65;;;2.10;;
22652;SDS011;11493;43.344;26.226;2023-08-08T06:26:36;2.22;;;1.90;;
22652;SDS011;11493;43.344;26.226;2023-08-08T06:29:02;4.25;;;1.67;;
22652;SDS011;11493;43.344;26.226;2023-08-08T06:31:30;2.55;;;1.50;;
22652;SDS011;11493;43.344;26.226;2023-08-08T06:33:57;2.58;;;1.70;;
22652;SDS011;11493;43.344;26.226;2023-08-08T06:36:24;4.75;;;2.10;;
22652;SDS011;11493;43.344;26.226;2023-08-08T06:38:51;2.33;;;1.70;;
22652;SDS011;11493;43.344;26.226;2023-08-08T06:41:18;4.63;;;1.80;;
22652;SDS011;11493;43.344;26.226;2023-08-08T06:43:45;5.38;;;1.90;;
22652;SDS011;11493;43.344;26.226;2023-08-08T06:46:12;5.60;;;1.85;;
22652;SDS011;11493;43.344;26.226;2023-08-08T06:48:42;2.88;;;1.52;;
22652;SDS011;11493;43.344;26.226;2023-08-08T06:51:13;4.07;;;1.60;;
22652;SDS011;11493;43.344;26.226;2023-08-08T06:53:40;4.15;;;1.55;;
22652;SDS011;11493;43.344;26.226;2023-08-08T06:56:07;5.05;;;2.22;;
22652;SDS011;11493;43.344;26.226;2023-08-08T06:58:34;4.30;;;1.67;;
22652;SDS011;11493;43.344;26.226;2023-08-08T07:01:02;2.22;;;1.70;;
22652;SDS011;11493;43.344;26.226;2023-08-08T07:03:29;4.25;;;1.50;;
22652;SDS011;11493;43.344;26.226;2023-08-08T07:05:56;2.05;;;1.40;;
22652;SDS011;11493;43.344;26.226;2023-08-08T07:08:23;1.50;;;1.30;;
22652;SDS011;11493;43.344;26.226;2023-08-08T07:10:51;1.83;;;1.40;;
22652;SDS011;11493;43.344;26.226;2023-08-08T07:13:21;1.47;;;1.37;;
22652;SDS011;11493;43.344;26.226;2023-08-08T07:15:49;1.75;;;1.52;;
22652;SDS011;11493;43.344;26.226;2023-08-08T07:18:16;1.50;;;1.40;;
22652;SDS011;11493;43.344;26.226;2023-08-08T07:20:44;1.92;;;1.42;;
22652;SDS011;11493;43.344;26.226;2023-08-08T07:23:11;5.47;;;2.00;;
22652;SDS011;11493;43.344;26.226;2023-08-08T07:25:38;18.05;;;1.73;;
22652;SDS011;11493;43.344;26.226;2023-08-08T07:28:05;3.13;;;1.52;;
22652;SDS011;11493;43.344;26.226;2023-08-08T07:30:33;4.63;;;1.50;;
22652;SDS011;11493;43.344;26.226;2023-08-08T07:33:00;1.60;;;1.50;;
22652;SDS011;11493;43.344;26.226;2023-08-08T07:35:28;4.50;;;1.40;;
22652;SDS011;11493;43.344;26.226;2023-08-08T07:37:55;2.55;;;1.90;;
22652;SDS011;11493;43.344;26.226;2023-08-08T07:40:22;4.03;;;2.55;;
22652;SDS011;11493;43.344;26.226;2023-08-08T07:42:50;4.43;;;3.17;;
22652;SDS011;11493;43.344;26.226;2023-08-08T07:45:18;3.55;;;2.45;;
22652;SDS011;11493;43.344;26.226;2023-08-08T07:47:45;3.10;;;1.85;;
22652;SDS011;11493;43.344;26.226;2023-08-08T07:50:13;2.65;;;1.90;;
22652;SDS011;11493;43.344;26.226;2023-08-08T07:52:41;3.17;;;2.00;;
22652;SDS011;11493;43.344;26.226;2023-08-08T07:55:08;4.68;;;2.35;;
22652;SDS011;11493;43.344;26.226;2023-08-08T07:57:36;2.28;;;2.08;;
22652;SDS011;11493;43.344;26.226;2023-08-08T08:00:03;2.42;;;2.10;;
22652;SDS011;11493;43.344;26.226;2023-08-08T08:02:41;4.63;;;1.63;;
22652;SDS011;11493;43.344;26.226;2023-08-08T08:05:09;5.47;;;1.77;;
22652;SDS011;11493;43.344;26.226;2023-08-08T08:07:37;5.10;;;1.75;;
22652;SDS011;11493;43.344;26.226;2023-08-08T08:10:06;3.22;;;1.67;;
22652;SDS011;11493;43.344;26.226;2023-08-08T08:12:35;2.75;;;1.50;;
22652;SDS011;11493;43.344;26.226;2023-08-08T08:15:03;1.40;;;1.30;;
22652;SDS011;11493;43.344;26.226;2023-08-08T08:17:31;2.00;;;1.40;;
22652;SDS011;11493;43.344;26.226;2023-08-08T08:19:58;2.45;;;1.48;;
22652;SDS011;11493;43.344;26.226;2023-08-08T08:22:26;1.77;;;1.40;;
22652;SDS011;11493;43.344;26.226;2023-08-08T08:24:54;3.35;;;1.50;;
22652;SDS011;11493;43.344;26.226;2023-08-08T08:27:21;2.72;;;1.30;;
22652;SDS011;11493;43.344;26.226;2023-08-08T08:29:48;2.33;;;1.15;;
22652;SDS011;11493;43.344;26.226;2023-08-08T08:32:15;1.52;;;1.13;;
22652;SDS011;11493;43.344;26.226;2023-08-08T08:34:43;1.73;;;1.48;;
22652;SDS011;11493;43.344;26.226;2023-08-08T08:37:10;1.90;;;1.55;;
22652;SDS011;11493;43.344;26.226;2023-08-08T08:39:37;3.28;;;1.55;;
22652;SDS011;11493;43.344;26.226;2023-08-08T08:42:05;4.88;;;1.65;;
22652;SDS011;11493;43.344;26.226;2023-08-08T08:44:33;3.25;;;1.50;;
22652;SDS011;11493;43.344;26.226;2023-08-08T08:47:02;1.88;;;1.15;;
22652;SDS011;11493;43.344;26.226;2023-08-08T08:49:30;2.85;;;1.35;;
22652;SDS011;11493;43.344;26.226;2023-08-08T08:51:59;2.60;;;1.42;;
22652;SDS011;11493;43.344;26.226;2023-08-08T08:54:28;2.95;;;1.92;;
22652;SDS011;11493;43.344;26.226;2023-08-08T08:56:57;2.20;;;1.38;;
22652;SDS011;11493;43.344;26.226;2023-08-08T08:59:25;6.97;;;1.60;;
22652;SDS011;11493;43.344;26.226;2023-08-08T09:01:53;3.08;;;1.60;;
22652;SDS011;11493;43.344;26.226;2023-08-08T09:04:21;1.90;;;1.55;;
22652;SDS011;11493;43.344;26.226;2023-08-08T09:06:50;2.40;;;1.17;;
22652;SDS011;11493;43.344;26.226;2023-08-08T09:09:18;3.58;;;1.60;;
22652;SDS011;11493;43.344;26.226;2023-08-08T09:11:49;7.22;;;1.50;;
22652;SDS011;11493;43.344;26.226;2023-08-08T09:14:18;1.50;;;1.40;;
22652;SDS011;11493;43.344;26.226;2023-08-08T09:16:47;1.85;;;1.35;;
22652;SDS011;11493;43.344;26.226;2023-08-08T09:19:15;2.95;;;1.48;;
22652;SDS011;11493;43.344;26.226;2023-08-08T09:21:48;4.60;;;1.63;;
22652;SDS011;11493;43.344;26.226;2023-08-08T09:24:17;3.20;;;1.45;;
22652;SDS011;11493;43.344;26.226;2023-08-08T09:26:49;4.90;;;1.85;;
22652;SDS011;11493;43.344;26.226;2023-08-08T09:29:17;1.98;;;1.63;;
22652;SDS011;11493;43.344;26.226;2023-08-08T09:31:46;2.13;;;1.25;;
22652;SDS011;11493;43.344;26.226;2023-08-08T09:34:15;2.60;;;1.88;;
22652;SDS011;11493;43.344;26.226;2023-08-08T09:36:42;4.63;;;1.60;;
22652;SDS011;11493;43.344;26.226;2023-08-08T09:39:12;3.17;;;1.90;;
22652;SDS011;11493;43.344;26.226;2023-08-08T09:41:40;2.85;;;1.60;;
22652;SDS011;11493;43.344;26.226;2023-08-08T09:44:37;1.88;;;1.50;;
22652;SDS011;11493;43.344;26.226;2023-08-08T09:47:04;3.17;;;1.35;;
22652;SDS011;11493;43.344;26.226;2023-08-08T09:49:38;1.40;;;1.30;;
22652;SDS011;11493;43.344;26.226;2023-08-08T09:52:10;5.38;;;1.52;;
22652;SDS011;11493;43.344;26.226;2023-08-08T09:54:39;6.60;;;1.27;;
22652;SDS011;11493;43.344;26.226;2023-08-08T10:00:02;4.60;;;1.20;;
22652;SDS011;11493;43.344;26.226;2023-08-08T10:02:38;3.45;;;1.02;;
22652;SDS011;11493;43.344;26.226;2023-08-08T10:05:13;3.38;;;0.90;;
22652;SDS011;11493;43.344;26.226;2023-08-08T10:07:46;1.55;;;1.45;;
22652;SDS011;11493;43.344;26.226;2023-08-08T10:10:14;2.00;;;1.17;;
22652;SDS011;11493;43.344;26.226;2023-08-08T10:12:43;2.20;;;1.10;;
22652;SDS011;11493;43.344;26.226;2023-08-08T10:15:10;1.80;;;1.02;;
22652;SDS011;11493;43.344;26.226;2023-08-08T10:17:41;2.78;;;1.20;;
22652;SDS011;11493;43.344;26.226;2023-08-08T10:20:10;1.20;;;1.10;;
22652;SDS011;11493;43.344;26.226;2023-08-08T10:22:43;2.80;;;1.27;;
22652;SDS011;11493;43.344;26.226;2023-08-08T10:25:18;3.65;;;1.40;;
22652;SDS011;11493;43.344;26.226;2023-08-08T10:30:57;1.70;;;0.90;;
22652;SDS011;11493;43.344;26.226;2023-08-08T10:33:27;1.10;;;1.00;;
22652;SDS011;11493;43.344;26.226;2023-08-08T10:36:09;0.80;;;0.80;;
22652;SDS011;11493;43.344;26.226;2023-08-08T10:44:55;1.23;;;0.80;;
22652;SDS011;11493;43.344;26.226;2023-08-08T10:47:31;0.90;;;0.70;;
22652;SDS011;11493;43.344;26.226;2023-08-08T10:52:52;2.13;;;0.90;;
22652;SDS011;11493;43.344;26.226;2023-08-08T10:55:26;0.77;;;0.70;;
22652;SDS011;11493;43.344;26.226;2023-08-08T10:58:13;1.02;;;0.70;;
22652;SDS011;11493;43.344;26.226;2023-08-08T11:00:47;0.75;;;0.75;;
22652;SDS011;11493;43.344;26.226;2023-08-08T11:03:15;0.60;;;0.60;;
22652;SDS011;11493;43.344;26.226;2023-08-08T11:05:46;1.80;;;0.57;;
22652;SDS011;11493;43.344;26.226;2023-08-08T11:08:18;2.25;;;0.70;;
22652;SDS011;11493;43.344;26.226;2023-08-08T11:10:51;0.50;;;0.50;;
22652;SDS011;11493;43.344;26.226;2023-08-08T11:13:20;0.55;;;0.50;;
22652;SDS011;11493;43.344;26.226;2023-08-08T11:15:47;2.20;;;0.47;;
22652;SDS011;11493;43.344;26.226;2023-08-08T11:18:15;2.15;;;0.60;;
22652;SDS011;11493;43.344;26.226;2023-08-08T11:20:49;2.08;;;0.50;;
22652;SDS011;11493;43.344;26.226;2023-08-08T11:23:23;5.45;;;1.05;;
22652;SDS011;11493;43.344;26.226;2023-08-08T11:25:51;0.50;;;0.50;;
22652;SDS011;11493;43.344;26.226;2023-08-08T11:28:21;2.15;;;0.40;;
22652;SDS011;11493;43.344;26.226;2023-08-08T11:30:50;2.17;;;0.75;;
22652;SDS011;11493;43.344;26.226;2023-08-08T11:33:20;3.80;;;0.55;;
22652;SDS011;11493;43.344;26.226;2023-08-08T11:35:48;0.57;;;0.38;;
22652;SDS011;11493;43.344;26.226;2023-08-08T11:38:16;2.22;;;0.60;;
22652;SDS011;11493;43.344;26.226;2023-08-08T11:40:45;1.30;;;0.50;;
22652;SDS011;11493;43.344;26.226;2023-08-08T11:43:13;1.20;;;0.60;;
22652;SDS011;11493;43.344;26.226;2023-08-08T11:45:42;0.50;;;0.50;;
22652;SDS011;11493;43.344;26.226;2023-08-08T11:48:11;0.70;;;0.60;;
22652;SDS011;11493;43.344;26.226;2023-08-08T11:50:40;0.68;;;0.52;;
22652;SDS011;11493;43.344;26.226;2023-08-08T11:53:10;0.68;;;0.65;;
22652;SDS011;11493;43.344;26.226;2023-08-08T11:55:38;0.60;;;0.52;;
22652;SDS011;11493;43.344;26.226;2023-08-08T11:58:12;1.08;;;0.50;;
22652;SDS011;11493;43.344;26.226;2023-08-08T12:00:42;1.65;;;0.40;;
22652;SDS011;11493;43.344;26.226;2023-08-08T12:03:15;0.50;;;0.50;;
22652;SDS011;11493;43.344;26.226;2023-08-08T12:05:46;1.42;;;0.38;;
22652;SDS011;11493;43.344;26.226;2023-08-08T12:08:18;0.52;;;0.50;;
22652;SDS011;11493;43.344;26.226;2023-08-08T12:10:51;0.50;;;0.50;;
22652;SDS011;11493;43.344;26.226;2023-08-08T12:13:23;2.83;;;0.52;;
22652;SDS011;11493;43.344;26.226;2023-08-08T12:15:59;0.60;;;0.40;;
22652;SDS011;11493;43.344;26.226;2023-08-08T12:18:27;0.70;;;0.50;;
22652;SDS011;11493;43.344;26.226;2023-08-08T12:20:58;2.30;;;0.50;;
22652;SDS011;11493;43.344;26.226;2023-08-08T12:23:27;1.45;;;0.50;;
22652;SDS011;11493;43.344;26.226;2023-08-08T12:25:54;0.85;;;0.60;;
22652;SDS011;11493;43.344;26.226;2023-08-08T12:28:22;2.95;;;0.50;;
22652;SDS011;11493;43.344;26.226;2023-08-08T12:30:50;1.95;;;0.50;;
22652;SDS011;11493;43.344;26.226;2023-08-08T12:33:20;0.65;;;0.50;;
22652;SDS011;11493;43.344;26.226;2023-08-08T12:35:48;0.45;;;0.30;;
22652;SDS011;11493;43.344;26.226;2023-08-08T12:38:16;0.98;;;0.40;;
22652;SDS011;11493;43.344;26.226;2023-08-08T12:40:46;0.63;;;0.45;;
22652;SDS011;11493;43.344;26.226;2023-08-08T12:43:16;0.32;;;0.32;;
22652;SDS011;11493;43.344;26.226;2023-08-08T12:45:48;0.40;;;0.40;;
22652;SDS011;11493;43.344;26.226;2023-08-08T12:48:19;0.30;;;0.30;;
22652;SDS011;11493;43.344;26.226;2023-08-08T12:50:49;0.60;;;0.52;;
22652;SDS011;11493;43.344;26.226;2023-08-08T12:53:18;1.45;;;0.50;;
22652;SDS011;11493;43.344;26.226;2023-08-08T12:55:46;0.70;;;0.30;;
22652;SDS011;11493;43.344;26.226;2023-08-08T12:58:16;0.40;;;0.40;;
22652;SDS011;11493;43.344;26.226;2023-08-08T13:00:44;0.40;;;0.40;;
22652;SDS011;11493;43.344;26.226;2023-08-08T13:03:15;1.38;;;0.40;;
22652;SDS011;11493;43.344;26.226;2023-08-08T13:05:43;0.73;;;0.40;;
22652;SDS011;11493;43.344;26.226;2023-08-08T13:08:12;2.20;;;0.40;;
22652;SDS011;11493;43.344;26.226;2023-08-08T13:10:43;1.00;;;0.40;;
22652;SDS011;11493;43.344;26.226;2023-08-08T13:13:11;0.30;;;0.30;;
22652;SDS011;11493;43.344;26.226;2023-08-08T13:15:40;1.95;;;0.30;;
22652;SDS011;11493;43.344;26.226;2023-08-08T13:18:14;2.25;;;0.40;;
22652;SDS011;11493;43.344;26.226;2023-08-08T13:20:41;5.28;;;0.20;;
22652;SDS011;11493;43.344;26.226;2023-08-08T13:23:10;0.30;;;0.30;;
22652;SDS011;11493;43.344;26.226;2023-08-08T13:25:40;0.30;;;0.30;;
22652;SDS011;11493;43.344;26.226;2023-08-08T13:28:10;1.90;;;0.30;;
22652;SDS011;11493;43.344;26.226;2023-08-08T13:30:43;0.25;;;0.22;;
22652;SDS011;11493;43.344;26.226;2023-08-08T13:33:11;0.60;;;0.40;;
22652;SDS011;11493;43.344;26.226;2023-08-08T13:35:40;0.30;;;0.30;;
22652;SDS011;11493;43.344;26.226;2023-08-08T13:38:10;2.50;;;0.20;;
22652;SDS011;11493;43.344;26.226;2023-08-08T13:40:42;0.40;;;0.28;;
22652;SDS011;11493;43.344;26.226;2023-08-08T13:43:11;0.38;;;0.20;;
22652;SDS011;11493;43.344;26.226;2023-08-08T13:45:39;0.32;;;0.28;;
22652;SDS011;11493;43.344;26.226;2023-08-08T13:48:08;1.65;;;0.30;;
22652;SDS011;11493;43.344;26.226;2023-08-08T13:50:37;2.72;;;0.20;;
22652;SDS011;11493;43.344;26.226;2023-08-08T13:53:12;2.53;;;0.20;;
22652;SDS011;11493;43.344;26.226;2023-08-08T13:58:50;2.05;;;0.30;;
22652;SDS011;11493;43.344;26.226;2023-08-08T14:01:32;1.23;;;0.30;;
22652;SDS011;11493;43.344;26.226;2023-08-08T14:04:02;3.63;;;0.80;;
22652;SDS011;11493;43.344;26.226;2023-08-08T14:06:30;0.45;;;0.45;;
22652;SDS011;11493;43.344;26.226;2023-08-08T14:09:05;0.40;;;0.20;;
22652;SDS011;11493;43.344;26.226;2023-08-08T14:11:37;3.78;;;0.57;;
22652;SDS011;11493;43.344;26.226;2023-08-08T14:14:13;0.52;;;0.30;;
22652;SDS011;11493;43.344;26.226;2023-08-08T14:16:42;0.82;;;0.30;;
22652;SDS011;11493;43.344;26.226;2023-08-08T14:25:14;0.80;;;0.30;;
22652;SDS011;11493;43.344;26.226;2023-08-08T14:30:13;0.52;;;0.30;;
22652;SDS011;11493;43.344;26.226;2023-08-08T14:32:44;0.77;;;0.30;;
22652;SDS011;11493;43.344;26.226;2023-08-08T14:35:13;1.10;;;0.30;;
22652;SDS011;11493;43.344;26.226;2023-08-08T14:37:46;0.60;;;0.30;;
22652;SDS011;11493;43.344;26.226;2023-08-08T14:40:14;0.43;;;0.20;;
22652;SDS011;11493;43.344;26.226;2023-08-08T14:42:46;0.20;;;0.20;;
22652;SDS011;11493;43.344;26.226;2023-08-08T14:45:13;0.20;;;0.20;;
22652;SDS011;11493;43.344;26.226;2023-08-08T14:47:41;0.98;;;0.30;;
22652;SDS011;11493;43.344;26.226;2023-08-08T14:50:13;0.15;;;0.13;;
22652;SDS011;11493;43.344;26.226;2023-08-08T14:52:43;2.22;;;0.30;;
22652;SDS011;11493;43.344;26.226;2023-08-08T14:55:11;0.30;;;0.20;;
22652;SDS011;11493;43.344;26.226;2023-08-08T14:57:43;1.10;;;0.30;;
22652;SDS011;11493;43.344;26.226;2023-08-08T15:00:13;0.50;;;0.10;;
22652;SDS011;11493;43.344;26.226;2023-08-08T15:02:42;0.77;;;0.22;;
22652;SDS011;11493;43.344;26.226;2023-08-08T15:05:12;3.40;;;0.57;;
22652;SDS011;11493;43.344;26.226;2023-08-08T15:07:41;2.75;;;0.30;;
22652;SDS011;11493;43.344;26.226;2023-08-08T15:10:10;0.22;;;0.22;;
22652;SDS011;11493;43.344;26.226;2023-08-08T15:12:40;1.85;;;0.20;;